Terminal Aerodrome Forecast
Issued by NWS Oklahoma City, OK

Home | Current Version | Previous Version | Text Only | Print | Product List | Glossary On
Versions: 1 2 3 4 5 6 7 8 9 10 11 12 13 14 15 16 17 18 19 20 21 22 23 24 25 26 27 28 29 30 31 32 33
000
FTUS44 KOUN 221121
TAFOUN
TAF
KOUN 221121Z 2212/2312 19009KT 5SM BR SCT008 OVC014
      TEMPO 2212/2216 BKN008 OVC012
     FM221700 31016G23KT P6SM SCT100
     FM222300 30007KT P6SM BKN250=

USA.gov is the U.S. government's official web portal to all federal, state and local government web resources and services.